Marengo, IL (60152)

12:15 PM CST on February 12, 2016 (GMT -0600)
TransitWeather.com | | Change Station
CLOSE
Current Station
Personal Weather Station
Location: Marengo, IL
Elevation: 807 ft
Nearby Weather Stations
Active Advisory: Wind Chill Advisory

Elev 807 ft 42.26 °N, 88.60 °W | Updated 10 seconds ago

Overcast
Overcast
22.1 °F
Feels Like 11 °F
N
11.4
Wind Variable Wind from NNE

Today
High -- | Low -- °F
--% Chance of Precip.
Yesterday
High -- | Low -- °F
Precip. -- in
Pressure 30.18 in
Visibility 10.0 miles
Clouds Overcast 2800 ft
Windchill 11 °F
Dew Point 9 °F
Humidity 56%
Rainfall 0.00 in
Snow Depth Not available.
6:55 AM 5:22 PM
Waxing Crescent, 22% visible
METAR KDKB 121755Z AUTO 31015G19KT 10SM OVC028 M06/M12 A3018 RMK AO2 T10591123 11054 21081
Pressure 30.18 in
Visibility 10.0 miles
Clouds Overcast 2800 ft
Windchill 11 °F
Dew Point 9 °F
Humidity 56%
Rainfall 0.00 in
Snow Depth Not available.
6:55 AM 5:22 PM
Waxing Crescent, 22% visible
METAR KDKB 121755Z AUTO 31015G19KT 10SM OVC028 M06/M12 A3018 RMK AO2 T10591123 11054 21081

10-Day Weather Forecast

Almanac

Astronomy

Feb. 12, 2016 Rise Set
Actual Time
Civil Twilight
Nautical Twilight
Astronomical Twilight
Moon
Length of Visible Light
Length of Day
Tomorrow will be .
, % of the Moon is Illuminated

Today's Extremes

State Highs State Lows

Community

WunderPhotos

Upload Photos

1,892,359 photos uploaded!

WunderBlog® & News

Nearby

Air Quality

  Air Quality AQ Index Pollutant
Not available.

Snow Depth

Station Depth Elevation

Earthquake Activity

City Distance Mag. Time & Date
Minimum magnitude displayed is 2.5.

Coastal Water Temperatures

Place Temperature

Stations

Nearby Weather Stations

Station Location Temp. Windchill Dew Point Humidity Wind Precip. Elev Updated Type
                   

Watches & Warnings

Wind Chill Advisory
Issued: 9:35 AM CST Feb. 12, 2016 – National Weather Service

... Wind Chill Advisory remains in effect from midnight tonight to
9 am CST Saturday...

* wind chill values... around 20 below zero.

* Other impacts... bitter cold wind chills can cause frostbite to
exposed skin in as little as 30 minutes.

Precautionary/preparedness actions...

A Wind Chill Advisory means that the wind will combine with the
very cold air to generate low wind chills. This will result in
frost bite and lead to hypothermia if precautions are not taken.
If you must venture outdoors... make sure you wear a hat and
gloves.



Beachler